No particular awareness of the weather is required.    There are no Weather-warnings


Meteo18 Weather Cam more information Meteo18 Weather Cam


Thunder radar more information blitzortung!


Rain radar more information rain snow radar


Visit our other weather sites:

Template documentation
and downloads

And another site



Weather Underground History page Text

Daily Summary for February 18, 2016 Units:  Metric    English   Both
« Previous Day
Next Day »
Daily Weekly Monthly Yearly Custom
  High: Low: Average:
Temperature: 2.8 °C -4.3 °C -0.1 °C
Dew Point: 2.1 °C -5.0 °C -0.8 °C
Humidity: 97 % 85 % 95 %
Wind Speed: 3.2 km/h 0.0 km/h 0.1 km/h
Wind Gust: 11.3 km/h - -
Wind:- - ESE
Pressure: 1020.2 hPa 1012.8 hPa -
Precipitation: 1.3 mm    
Historical Graphs
 
 
Tabular Data for February 18, 2016
Time Temperature Dew Point Pressure Wind Wind Speed Wind Gust Humidity Rainfall Rate (Hourly)
00:02 -3.4 °C -4.1 °C 1014.4 hPa Calm     95 % 0.0 mm
00:07 -3.5 °C -4.2 °C 1014.4 hPa Calm     95 % 0.0 mm
00:12 -3.5 °C -4.0 °C 1014.4 hPa Calm     96 % 0.0 mm
00:17 -3.5 °C -4.2 °C 1014.4 hPa Calm     95 % 0.0 mm
00:22 -3.6 °C -4.3 °C 1014.4 hPa Calm     95 % 0.0 mm
00:32 -3.9 °C -4.6 °C 1014.4 hPa Calm     95 % 0.0 mm
00:37 -4.1 °C -4.8 °C 1014.4 hPa Calm     95 % 0.0 mm
00:42 -4.2 °C -4.9 °C 1014.4 hPa Calm     95 % 0.0 mm
00:47 -4.3 °C -5.0 °C 1014.4 hPa Calm     95 % 0.0 mm
00:52 -4.3 °C -5.0 °C 1014.4 hPa Calm     95 % 0.0 mm
00:57 -4.1 °C -4.6 °C 1014.4 hPa Calm     96 % 0.0 mm
01:02 -3.7 °C -4.1 °C 1014.4 hPa Calm     97 % 0.0 mm
01:07 -3.5 °C -3.9 °C 1014.4 hPa Calm     97 % 0.0 mm
01:22 -3.4 °C -3.8 °C 1014.4 hPa Calm     97 % 0.0 mm
01:27 -3.2 °C -3.6 °C 1014.1 hPa Calm     97 % 0.0 mm
01:32 -3.1 °C -3.5 °C 1014.1 hPa Calm     97 % 0.0 mm
01:37 -3.0 °C -3.4 °C 1014.1 hPa Calm     97 % 0.0 mm
01:47 -3.0 °C -3.4 °C 1014.1 hPa Calm     97 % 0.0 mm
01:52 -2.9 °C -3.3 °C 1014.1 hPa Calm     97 % 0.0 mm
01:57 -3.1 °C -3.6 °C 1014.1 hPa Calm     96 % 0.0 mm
02:02 -3.2 °C -3.7 °C 1014.1 hPa Calm     96 % 0.0 mm
02:12 -3.3 °C -3.8 °C 1014.1 hPa Calm     96 % 0.0 mm
02:17 -3.2 °C -3.7 °C 1014.1 hPa Calm     96 % 0.0 mm
02:22 -3.2 °C -3.6 °C 1014.1 hPa Calm     97 % 0.0 mm
02:27 -3.1 °C -3.5 °C 1014.1 hPa Calm     97 % 0.0 mm
02:32 -3.1 °C -3.5 °C 1014.1 hPa Calm     97 % 0.0 mm
02:37 -3.1 °C -3.5 °C 1014.1 hPa Calm     97 % 0.0 mm
02:42 -3.1 °C -3.5 °C 1014.1 hPa Calm     97 % 0.0 mm
02:47 -3.1 °C -3.5 °C 1013.8 hPa Calm     97 % 0.0 mm
02:57 -3.0 °C -3.4 °C 1013.8 hPa Calm     97 % 0.0 mm
03:02 -3.1 °C -3.6 °C 1013.8 hPa Calm     96 % 0.0 mm
03:07 -3.2 °C -3.7 °C 1013.8 hPa Calm     96 % 0.0 mm
03:12 -3.3 °C -3.8 °C 1013.8 hPa Calm     96 % 0.0 mm
03:17 -3.3 °C -3.8 °C 1013.8 hPa Calm     96 % 0.0 mm
03:22 -3.3 °C -3.8 °C 1013.8 hPa Calm     96 % 0.0 mm
03:27 -3.4 °C -3.9 °C 1013.8 hPa Calm     96 % 0.0 mm
03:37 -3.5 °C -4.0 °C 1013.4 hPa Calm     96 % 0.0 mm
03:42 -3.5 °C -4.0 °C 1013.4 hPa Calm     96 % 0.0 mm
03:47 -3.5 °C -4.0 °C 1013.4 hPa Calm     96 % 0.0 mm
03:57 -3.6 °C -4.1 °C 1013.4 hPa Calm     96 % 0.0 mm
04:02 -3.6 °C -4.1 °C 1013.4 hPa Calm     96 % 0.0 mm
04:07 -3.4 °C -3.9 °C 1013.4 hPa Calm     96 % 0.0 mm
04:17 -3.4 °C -3.9 °C 1013.4 hPa Calm     96 % 0.0 mm
04:22 -3.4 °C -3.9 °C 1013.4 hPa Calm     96 % 0.0 mm
04:27 -3.3 °C -3.8 °C 1013.4 hPa Calm     96 % 0.0 mm
04:32 -3.2 °C -3.6 °C 1013.4 hPa Calm     97 % 0.0 mm
04:42 -3.2 °C -3.6 °C 1013.1 hPa Calm     97 % 0.0 mm
04:47 -3.2 °C -3.7 °C 1013.1 hPa Calm     96 % 0.0 mm
04:52 -3.2 °C -3.7 °C 1013.1 hPa Calm     96 % 0.0 mm
04:57 -3.3 °C -3.8 °C 1013.1 hPa Calm     96 % 0.0 mm
05:02 -3.2 °C -3.6 °C 1013.1 hPa Calm     97 % 0.0 mm
05:12 -3.2 °C -3.6 °C 1013.1 hPa Calm     97 % 0.0 mm
05:17 -3.1 °C -3.5 °C 1013.1 hPa Calm     97 % 0.0 mm
05:22 -3.1 °C -3.5 °C 1012.8 hPa Calm     97 % 0.0 mm
05:27 -3.1 °C -3.5 °C 1012.8 hPa Calm     97 % 0.0 mm
05:32 -3.0 °C -3.4 °C 1013.1 hPa Calm     97 % 0.0 mm
05:42 -2.9 °C -3.3 °C 1013.1 hPa Calm     97 % 0.0 mm
05:47 -2.9 °C -3.3 °C 1013.1 hPa Calm     97 % 0.0 mm
05:52 -2.8 °C -3.2 °C 1013.1 hPa Calm     97 % 0.0 mm
06:02 -2.8 °C -3.2 °C 1013.1 hPa Calm     97 % 0.0 mm
06:12 -2.8 °C -3.2 °C 1013.1 hPa Calm     97 % 0.0 mm
06:17 -2.7 °C -3.1 °C 1013.1 hPa Calm     97 % 0.0 mm
06:27 -2.7 °C -3.1 °C 1013.4 hPa Calm     97 % 0.0 mm
06:32 -2.6 °C -3.0 °C 1013.1 hPa Calm     97 % 0.0 mm
06:37 -2.6 °C -3.0 °C 1013.1 hPa Calm     97 % 0.0 mm
06:47 -2.5 °C -2.9 °C 1013.4 hPa Calm     97 % 0.0 mm
06:57 -2.4 °C -2.8 °C 1013.1 hPa Calm     97 % 0.0 mm
07:02 -2.3 °C -2.7 °C 1013.4 hPa Calm     97 % 0.0 mm
07:07 -2.3 °C -2.7 °C 1013.4 hPa Calm     97 % 0.0 mm
07:12 -2.3 °C -2.7 °C 1013.1 hPa Calm     97 % 0.0 mm
07:17 -2.2 °C -2.6 °C 1013.1 hPa Calm     97 % 0.0 mm
07:22 -2.2 °C -2.6 °C 1013.4 hPa Calm     97 % 0.0 mm
07:27 -2.2 °C -2.6 °C 1013.1 hPa Calm     97 % 0.0 mm
07:37 -2.1 °C -2.5 °C 1013.4 hPa Calm     97 % 0.0 mm
07:42 -2.1 °C -2.5 °C 1013.4 hPa Calm     97 % 0.0 mm
07:47 -2.1 °C -2.5 °C 1013.4 hPa Calm     97 % 0.0 mm
07:52 -2.1 °C -2.7 °C 1013.4 hPa Calm     96 % 0.0 mm
07:57 -2.1 °C -2.5 °C 1013.4 hPa Calm     97 % 0.0 mm
08:02 -2.1 °C -2.7 °C 1013.4 hPa Calm     96 % 0.0 mm
08:07 -2.1 °C -2.5 °C 1013.4 hPa Calm     97 % 0.0 mm
08:12 -2.1 °C -2.5 °C 1013.4 hPa Calm     97 % 0.0 mm
08:22 -2.0 °C -2.4 °C 1013.8 hPa Calm     97 % 0.0 mm
08:32 -1.9 °C -2.3 °C 1014.1 hPa Calm     97 % 0.0 mm
08:42 -1.8 °C -2.2 °C 1014.1 hPa Calm     97 % 0.0 mm
08:57 -1.6 °C -2.0 °C 1014.1 hPa Calm     97 % 0.0 mm
09:02 -1.4 °C -1.8 °C 1014.4 hPa Calm     97 % 0.0 mm
09:12 -1.3 °C -1.7 °C 1014.4 hPa Calm     97 % 0.0 mm
09:17 -1.2 °C -1.6 °C 1014.4 hPa Calm     97 % 0.0 mm
09:22 -1.2 °C -1.8 °C 1014.4 hPa Calm     96 % 0.0 mm
09:32 -1.0 °C -1.6 °C 1014.4 hPa Calm     96 % 0.0 mm
09:37 -0.9 °C -1.5 °C 1014.4 hPa Calm     96 % 0.0 mm
09:42 -0.9 °C -1.5 °C 1014.4 hPa Calm     96 % 0.0 mm
09:47 -0.9 °C -1.5 °C 1014.4 hPa Calm     96 % 0.0 mm
09:52 -0.8 °C -1.4 °C 1014.4 hPa Calm     96 % 0.0 mm
09:57 -0.7 °C -1.3 °C 1014.4 hPa Calm     96 % 0.0 mm
10:02 -0.6 °C -1.2 °C 1014.4 hPa Calm     96 % 0.0 mm
10:12 -0.3 °C -1.0 °C 1014.4 hPa Calm   1.6 km/h 95 % 0.0 mm
10:17 -0.2 °C -1.0 °C 1014.4 hPa Calm   1.6 km/h 94 % 0.0 mm
10:27 0.1 °C -0.9 °C 1014.4 hPa Calm   1.6 km/h 93 % 0.0 mm
10:32 0.1 °C -1.2 °C 1014.4 hPa Calm   1.6 km/h 91 % 0.0 mm
10:37 0.2 °C -1.1 °C 1014.4 hPa Calm   1.6 km/h 91 % 0.0 mm
10:42 0.2 °C -1.1 °C 1014.4 hPa Calm   1.6 km/h 91 % 0.0 mm
10:47 0.3 °C -1.0 °C 1014.4 hPa Calm   1.6 km/h 91 % 0.0 mm
10:52 0.5 °C -0.8 °C 1014.4 hPa Calm   1.6 km/h 91 % 0.0 mm
10:57 0.7 °C -0.6 °C 1014.8 hPa Calm   1.6 km/h 91 % 0.0 mm
11:02 1.0 °C -0.5 °C 1014.8 hPa Calm     90 % 0.0 mm
11:12 1.5 °C -0.4 °C 1014.4 hPa Calm   1.6 km/h 87 % 0.0 mm
11:17 1.7 °C -0.2 °C 1014.4 hPa Calm   1.6 km/h 87 % 0.0 mm
11:22 2.0 °C 0.1 °C 1014.4 hPa Calm   1.6 km/h 87 % 0.0 mm
11:27 2.2 °C 0.1 °C 1014.4 hPa Calm   1.6 km/h 86 % 0.0 mm
11:32 2.2 °C 0.1 °C 1014.8 hPa Calm   1.6 km/h 86 % 0.0 mm
11:42 2.1 °C 0.0 °C 1014.8 hPa Calm   1.6 km/h 86 % 0.0 mm
11:47 2.2 °C -0.1 °C 1014.8 hPa Calm   1.6 km/h 85 % 0.0 mm
11:52 2.2 °C -0.1 °C 1014.8 hPa Calm   1.6 km/h 85 % 0.0 mm
12:02 2.2 °C -0.1 °C 1014.8 hPa Calm     85 % 0.0 mm
12:07 2.2 °C -0.1 °C 1014.8 hPa Calm   4.8 km/h 85 % 0.0 mm
12:12 2.2 °C 0.1 °C 1014.8 hPa Calm   4.8 km/h 86 % 0.0 mm
12:17 2.1 °C 0.3 °C 1014.8 hPa Calm   4.8 km/h 88 % 0.0 mm
12:22 2.1 °C 0.5 °C 1014.8 hPa Calm   4.8 km/h 89 % 0.0 mm
12:32 1.9 °C 0.4 °C 1014.4 hPa Calm   3.2 km/h 90 % 0.0 mm
12:37 1.9 °C 0.6 °C 1014.4 hPa NNW 1.6 km/h 4.8 km/h 91 % 0.0 mm
12:47 1.8 °C 0.6 °C 1014.4 hPa Calm   4.8 km/h 92 % 0.0 mm
12:52 1.8 °C 0.8 °C 1014.4 hPa Calm   3.2 km/h 93 % 0.0 mm
12:57 1.8 °C 0.8 °C 1014.4 hPa Calm   1.6 km/h 93 % 0.0 mm
13:02 1.8 °C 0.8 °C 1014.4 hPa Calm   3.2 km/h 93 % 0.0 mm
13:07 1.9 °C 1.0 °C 1014.4 hPa Calm   3.2 km/h 94 % 0.0 mm
13:12 2.0 °C 1.1 °C 1014.4 hPa Calm   3.2 km/h 94 % 0.0 mm
13:17 2.1 °C 1.2 °C 1014.4 hPa Calm   1.6 km/h 94 % 0.0 mm
13:22 2.2 °C 1.3 °C 1014.1 hPa Calm   1.6 km/h 94 % 0.3 mm
13:27 2.2 °C 1.3 °C 1014.1 hPa Calm   1.6 km/h 94 % 0.3 mm
13:37 2.1 °C 1.2 °C 1014.1 hPa Calm   3.2 km/h 94 % 0.3 mm
13:42 2.1 °C 1.2 °C 1014.1 hPa Calm   4.8 km/h 94 % 0.3 mm
13:47 2.1 °C 1.2 °C 1014.1 hPa Calm   4.8 km/h 94 % 0.5 mm
13:52 2.2 °C 1.5 °C 1014.1 hPa Calm   4.8 km/h 95 % 0.5 mm
13:57 2.1 °C 1.2 °C 1014.1 hPa Calm   3.2 km/h 94 % 0.5 mm
14:02 2.1 °C 1.2 °C 1014.1 hPa Calm   3.2 km/h 94 % 0.5 mm
14:12 2.2 °C 1.5 °C 1013.8 hPa WSW 1.6 km/h 1.6 km/h 95 % 0.5 mm
14:17 2.2 °C 1.5 °C 1013.8 hPa NW 1.6 km/h 3.2 km/h 95 % 0.5 mm
14:22 2.3 °C 1.7 °C 1013.8 hPa Calm   4.8 km/h 96 % 0.5 mm
14:27 2.4 °C 1.7 °C 1013.8 hPa Calm   4.8 km/h 95 % 0.5 mm
14:32 2.3 °C 1.6 °C 1013.8 hPa Calm   6.4 km/h 95 % 0.5 mm
14:37 2.4 °C 1.7 °C 1013.8 hPa Calm   6.4 km/h 95 % 0.5 mm
14:42 2.4 °C 1.7 °C 1013.8 hPa Calm   6.4 km/h 95 % 0.5 mm
14:47 2.4 °C 1.7 °C 1013.8 hPa Calm   4.8 km/h 95 % 0.5 mm
14:52 2.4 °C 1.7 °C 1013.8 hPa Calm   3.2 km/h 95 % 0.5 mm
14:57 2.5 °C 1.8 °C 1014.1 hPa West 1.6 km/h 3.2 km/h 95 % 0.5 mm
15:07 2.5 °C 1.8 °C 1014.1 hPa Calm   3.2 km/h 95 % 0.5 mm
15:12 2.6 °C 1.9 °C 1013.8 hPa Calm   3.2 km/h 95 % 0.3 mm
15:17 2.7 °C 2.0 °C 1014.1 hPa Calm   1.6 km/h 95 % 0.3 mm
15:22 2.7 °C 2.0 °C 1014.1 hPa Calm   1.6 km/h 95 % 0.3 mm
15:27 2.7 °C 2.0 °C 1014.1 hPa Calm   1.6 km/h 95 % 0.3 mm
15:32 2.7 °C 2.0 °C 1013.8 hPa Calm   1.6 km/h 95 % 0.3 mm
15:42 2.7 °C 2.0 °C 1014.1 hPa Calm   1.6 km/h 95 % 0.0 mm
15:47 2.8 °C 2.1 °C 1014.4 hPa Calm   1.6 km/h 95 % 0.0 mm
15:52 2.8 °C 2.1 °C 1014.4 hPa Calm   1.6 km/h 95 % 0.0 mm
15:57 2.7 °C 2.0 °C 1014.4 hPa Calm   1.6 km/h 95 % 0.0 mm
16:02 2.7 °C 2.0 °C 1014.4 hPa Calm   1.6 km/h 95 % 0.0 mm
16:07 2.8 °C 2.1 °C 1014.4 hPa Calm   1.6 km/h 95 % 0.0 mm
16:12 2.8 °C 2.1 °C 1014.4 hPa Calm   1.6 km/h 95 % 0.0 mm
16:27 2.8 °C 2.1 °C 1014.8 hPa Calm   1.6 km/h 95 % 0.0 mm
16:32 2.7 °C 2.0 °C 1014.8 hPa Calm   1.6 km/h 95 % 0.0 mm
16:37 2.7 °C 2.0 °C 1014.8 hPa Calm   1.6 km/h 95 % 0.0 mm
16:47 2.7 °C 2.0 °C 1014.8 hPa Calm   1.6 km/h 95 % 0.0 mm
16:52 2.7 °C 2.0 °C 1014.8 hPa Calm   1.6 km/h 95 % 0.0 mm
16:57 2.7 °C 2.0 °C 1014.8 hPa Calm   1.6 km/h 95 % 0.0 mm
17:02 2.6 °C 1.9 °C 1015.1 hPa Calm   1.6 km/h 95 % 0.0 mm
17:12 2.6 °C 1.9 °C 1015.1 hPa Calm   1.6 km/h 95 % 0.0 mm
17:22 2.5 °C 1.8 °C 1015.1 hPa Calm   3.2 km/h 95 % 0.0 mm
17:27 2.5 °C 1.9 °C 1015.1 hPa NE 1.6 km/h 3.2 km/h 96 % 0.0 mm
17:32 2.5 °C 1.9 °C 1015.1 hPa NE 1.6 km/h 3.2 km/h 96 % 0.0 mm
17:37 2.4 °C 1.8 °C 1015.5 hPa Calm   3.2 km/h 96 % 0.0 mm
17:42 2.4 °C 1.7 °C 1015.5 hPa Calm   3.2 km/h 95 % 0.0 mm
17:52 2.3 °C 1.6 °C 1015.5 hPa Calm   4.8 km/h 95 % 0.0 mm
17:57 2.3 °C 1.6 °C 1015.5 hPa Calm   4.8 km/h 95 % 0.0 mm
18:02 2.3 °C 1.6 °C 1015.5 hPa ENE 3.2 km/h 4.8 km/h 95 % 0.0 mm
18:12 2.3 °C 1.6 °C 1015.5 hPa NE 1.6 km/h 4.8 km/h 95 % 0.0 mm
18:17 2.3 °C 1.6 °C 1015.8 hPa Calm   4.8 km/h 95 % 0.0 mm
18:22 2.3 °C 1.6 °C 1015.8 hPa Calm   3.2 km/h 95 % 0.3 mm
18:32 2.2 °C 1.5 °C 1016.1 hPa Calm   3.2 km/h 95 % 0.3 mm
18:37 2.2 °C 1.5 °C 1016.1 hPa Calm   3.2 km/h 95 % 0.3 mm
18:47 2.1 °C 1.4 °C 1016.5 hPa Calm   3.2 km/h 95 % 0.3 mm
18:57 2.1 °C 1.4 °C 1016.5 hPa ENE 1.6 km/h 4.8 km/h 95 % 0.3 mm
19:02 2.1 °C 1.4 °C 1016.8 hPa Calm   4.8 km/h 95 % 0.3 mm
19:17 1.9 °C 1.2 °C 1017.2 hPa Calm   6.4 km/h 95 % 0.0 mm
19:22 1.9 °C 1.2 °C 1017.2 hPa ENE 1.6 km/h 3.2 km/h 95 % 0.0 mm
19:27 1.7 °C 1.0 °C 1017.2 hPa NE 1.6 km/h 4.8 km/h 95 % 0.0 mm
19:32 1.7 °C 1.0 °C 1017.2 hPa NE 1.6 km/h 8.0 km/h 95 % 0.3 mm
19:37 1.6 °C 0.9 °C 1017.2 hPa NE 1.6 km/h 8.0 km/h 95 % 0.3 mm
19:47 1.5 °C 0.8 °C 1017.2 hPa NE 1.6 km/h 6.4 km/h 95 % 0.3 mm
19:52 1.4 °C 0.7 °C 1017.5 hPa Calm   6.4 km/h 95 % 0.3 mm
20:07 1.4 °C 0.7 °C 1017.5 hPa Calm   4.8 km/h 95 % 0.3 mm
20:17 1.4 °C 0.8 °C 1017.8 hPa NE 3.2 km/h 3.2 km/h 96 % 0.3 mm
20:22 1.4 °C 0.8 °C 1017.8 hPa Calm   4.8 km/h 96 % 0.3 mm
20:27 1.3 °C 0.7 °C 1017.8 hPa Calm   4.8 km/h 96 % 0.3 mm
20:32 1.3 °C 0.7 °C 1017.8 hPa Calm   4.8 km/h 96 % 0.0 mm
20:37 1.3 °C 0.7 °C 1017.8 hPa Calm   3.2 km/h 96 % 0.0 mm
20:42 1.3 °C 0.7 °C 1017.8 hPa Calm     96 % 0.0 mm
20:52 1.4 °C 0.8 °C 1018.2 hPa Calm   1.6 km/h 96 % 0.0 mm
20:57 1.4 °C 0.8 °C 1018.2 hPa Calm   3.2 km/h 96 % 0.0 mm
21:02 1.4 °C 0.8 °C 1018.5 hPa Calm   3.2 km/h 96 % 0.0 mm
21:07 1.4 °C 0.8 °C 1018.5 hPa Calm   3.2 km/h 96 % 0.0 mm
21:12 1.4 °C 0.8 °C 1018.5 hPa Calm   1.6 km/h 96 % 0.0 mm
21:17 1.4 °C 0.8 °C 1018.5 hPa Calm   1.6 km/h 96 % 0.0 mm
21:22 1.4 °C 0.8 °C 1018.8 hPa Calm   1.6 km/h 96 % 0.0 mm
21:27 1.5 °C 0.9 °C 1018.8 hPa Calm   3.2 km/h 96 % 0.0 mm
21:32 1.6 °C 1.0 °C 1018.8 hPa Calm   3.2 km/h 96 % 0.0 mm
21:37 1.6 °C 1.0 °C 1018.8 hPa Calm   3.2 km/h 96 % 0.0 mm
21:47 1.6 °C 1.0 °C 1018.8 hPa Calm   4.8 km/h 96 % 0.0 mm
21:52 1.7 °C 1.1 °C 1018.8 hPa Calm   4.8 km/h 96 % 0.0 mm
21:57 1.7 °C 1.1 °C 1019.2 hPa East 1.6 km/h 1.6 km/h 96 % 0.0 mm
22:02 1.7 °C 1.1 °C 1019.2 hPa Calm   3.2 km/h 96 % 0.0 mm
22:07 1.7 °C 1.1 °C 1019.2 hPa Calm   6.4 km/h 96 % 0.0 mm
22:12 1.7 °C 1.1 °C 1019.2 hPa Calm   6.4 km/h 96 % 0.0 mm
22:22 1.8 °C 1.2 °C 1019.5 hPa Calm   11.3 km/h 96 % 0.0 mm
22:27 1.8 °C 1.2 °C 1019.5 hPa Calm   11.3 km/h 96 % 0.0 mm
22:32 1.8 °C 1.2 °C 1019.5 hPa Calm   4.8 km/h 96 % 0.0 mm
22:37 1.8 °C 1.2 °C 1019.5 hPa NE 1.6 km/h 3.2 km/h 96 % 0.0 mm
22:42 1.8 °C 1.2 °C 1019.5 hPa Calm   4.8 km/h 96 % 0.0 mm
22:52 1.8 °C 1.2 °C 1019.9 hPa Calm   4.8 km/h 96 % 0.0 mm
23:02 1.9 °C 1.3 °C 1019.9 hPa Calm   3.2 km/h 96 % 0.0 mm
23:12 1.9 °C 1.3 °C 1019.9 hPa Calm   1.6 km/h 96 % 0.0 mm
23:22 2.0 °C 1.4 °C 1020.2 hPa Calm     96 % 0.0 mm
23:32 2.0 °C 1.4 °C 1020.2 hPa Calm     96 % 0.0 mm
23:37 1.9 °C 1.3 °C 1020.2 hPa Calm     96 % 0.0 mm
23:42 1.9 °C 1.3 °C 1020.2 hPa Calm     96 % 0.0 mm
23:47 1.8 °C 1.2 °C 1020.2 hPa Calm     96 % 0.0 mm
23:52 1.8 °C 1.2 °C 1020.2 hPa Calm     96 % 0.0 mm
23:57 1.8 °C 1.2 °C 1020.2 hPa Calm     96 % 0.0 mm
Meteo18
Compliments of Weather Underground - 4 mb

Script developed by  Jim McMurry - jmcmurry@mwt.net Adapted for the template by  Wim van der Kuil - Leuven-Template.eu

You find our weather info also at:

European Weather Network

Weather Underground

Equipment we use:

Weather-station
Davis Vue

Weather-program
Meteohub

Weather-server
Raspberry PI 2 B+

Provider
1 and 1

Davis Vue

Meteohub

Raspberry PI 2 B+

1 and 1